Countyline, Oklahoma
Current Conditions -  °F | °C
As of 5:55 AM on Friday 21 Nov 2014 (Local Time) from KDUC Reporting Station
Overcast Overcast  
Wind Chill: 55°   Ceiling: 400
Heat Index: 55°   Visibility: 7mi
Dew Point: 55°   Wind: 7mph
Humidity: 100%   Direction: 170°S
Pressure: 30.02"   Gusts: NA
Location:  34.45°N, 97.56°W
Report Text: KDUC 211155Z AUTO 17006KT 7SM OVC004 13/13 A3002 RMK AO2
Loading
Personal Weather Stations






























Interactive Weather Map New forecast layout! Learn more

10-Day Weather Forecast

Advertisements
Track Severe Weather on mobile